Konya/Eregli, Turkey
Current Conditions -  °F | °C
As of 9:20 PM on Sunday 25 Jan 2015 (Local Time) from LTAF Reporting Station
Haze Haze  
Wind Chill: 57°   Ceiling: Unl
Heat Index: 57°   Visibility: 2.5mi
Dew Point: 36°   Wind: 12mph
Humidity: 44%   Direction: 20°NNE
Pressure: 30.06"   Gusts: NA
Location:  37.51°N, 34.06°E
Report Text: LTAF 251820Z 02010KT 4000 HZ NSC 14/02 Q1018 NOSIG
Loading
Personal Weather Stations






























Interactive Weather Map New forecast layout! Learn more

10-Day Weather Forecast

Advertisements
Track Severe Weather on mobile